sensor_id;sensor_type;location;lat;lon;timestamp;P1;durP1;ratioP1;P2;durP2;ratioP2
40807;SDS011;26523;52.504;13.498;2023-11-19T00:01:32;12.43;;;3.78;;
40807;SDS011;26523;52.504;13.498;2023-11-19T00:03:57;9.35;;;3.90;;
40807;SDS011;26523;52.504;13.498;2023-11-19T00:06:32;9.18;;;3.70;;
40807;SDS011;26523;52.504;13.498;2023-11-19T00:08:58;9.45;;;4.00;;
40807;SDS011;26523;52.504;13.498;2023-11-19T00:11:25;6.63;;;3.35;;
40807;SDS011;26523;52.504;13.498;2023-11-19T00:13:52;8.68;;;3.20;;
40807;SDS011;26523;52.504;13.498;2023-11-19T00:16:18;6.22;;;3.33;;
40807;SDS011;26523;52.504;13.498;2023-11-19T00:18:44;5.60;;;3.38;;
40807;SDS011;26523;52.504;13.498;2023-11-19T00:21:10;8.68;;;3.17;;
40807;SDS011;26523;52.504;13.498;2023-11-19T00:23:36;8.90;;;3.55;;
40807;SDS011;26523;52.504;13.498;2023-11-19T00:26:02;11.30;;;3.47;;
40807;SDS011;26523;52.504;13.498;2023-11-19T00:28:31;10.15;;;3.40;;
40807;SDS011;26523;52.504;13.498;2023-11-19T00:30:59;9.98;;;3.30;;
40807;SDS011;26523;52.504;13.498;2023-11-19T00:33:25;6.88;;;3.47;;
40807;SDS011;26523;52.504;13.498;2023-11-19T00:35:50;6.70;;;3.05;;
40807;SDS011;26523;52.504;13.498;2023-11-19T00:38:16;5.47;;;3.42;;
40807;SDS011;26523;52.504;13.498;2023-11-19T00:40:48;9.18;;;2.78;;
40807;SDS011;26523;52.504;13.498;2023-11-19T00:43:16;8.60;;;3.13;;
40807;SDS011;26523;52.504;13.498;2023-11-19T00:45:45;7.45;;;3.10;;
40807;SDS011;26523;52.504;13.498;2023-11-19T00:48:10;11.82;;;3.15;;
40807;SDS011;26523;52.504;13.498;2023-11-19T00:50:39;6.90;;;3.17;;
40807;SDS011;26523;52.504;13.498;2023-11-19T00:53:09;10.40;;;2.67;;
40807;SDS011;26523;52.504;13.498;2023-11-19T00:55:35;7.78;;;3.88;;
40807;SDS011;26523;52.504;13.498;2023-11-19T00:58:02;7.03;;;3.35;;
40807;SDS011;26523;52.504;13.498;2023-11-19T01:00:35;7.50;;;3.20;;
40807;SDS011;26523;52.504;13.498;2023-11-19T01:03:01;5.93;;;3.28;;
40807;SDS011;26523;52.504;13.498;2023-11-19T01:05:27;7.10;;;3.53;;
40807;SDS011;26523;52.504;13.498;2023-11-19T01:07:54;8.93;;;3.65;;
40807;SDS011;26523;52.504;13.498;2023-11-19T01:10:23;5.72;;;3.03;;
40807;SDS011;26523;52.504;13.498;2023-11-19T01:12:49;9.80;;;3.20;;
40807;SDS011;26523;52.504;13.498;2023-11-19T01:15:15;7.13;;;2.75;;
40807;SDS011;26523;52.504;13.498;2023-11-19T01:17:43;5.82;;;3.10;;
40807;SDS011;26523;52.504;13.498;2023-11-19T01:20:09;6.60;;;3.08;;
40807;SDS011;26523;52.504;13.498;2023-11-19T01:22:38;6.50;;;3.10;;
40807;SDS011;26523;52.504;13.498;2023-11-19T01:25:04;7.18;;;3.05;;
40807;SDS011;26523;52.504;13.498;2023-11-19T01:27:30;8.18;;;3.35;;
40807;SDS011;26523;52.504;13.498;2023-11-19T01:29:56;8.82;;;3.50;;
40807;SDS011;26523;52.504;13.498;2023-11-19T01:32:23;5.35;;;2.88;;
40807;SDS011;26523;52.504;13.498;2023-11-19T01:34:49;7.82;;;3.33;;
40807;SDS011;26523;52.504;13.498;2023-11-19T01:37:15;11.43;;;3.45;;
40807;SDS011;26523;52.504;13.498;2023-11-19T01:39:45;8.35;;;3.40;;
40807;SDS011;26523;52.504;13.498;2023-11-19T01:42:10;5.35;;;2.60;;
40807;SDS011;26523;52.504;13.498;2023-11-19T01:44:41;10.60;;;3.72;;
40807;SDS011;26523;52.504;13.498;2023-11-19T01:47:06;6.10;;;3.47;;
40807;SDS011;26523;52.504;13.498;2023-11-19T01:49:36;7.47;;;3.13;;
40807;SDS011;26523;52.504;13.498;2023-11-19T01:52:03;8.07;;;3.10;;
40807;SDS011;26523;52.504;13.498;2023-11-19T01:54:30;4.97;;;2.65;;
40807;SDS011;26523;52.504;13.498;2023-11-19T01:56:56;5.43;;;2.75;;
40807;SDS011;26523;52.504;13.498;2023-11-19T01:59:23;6.57;;;3.30;;
40807;SDS011;26523;52.504;13.498;2023-11-19T02:01:56;7.57;;;2.70;;
40807;SDS011;26523;52.504;13.498;2023-11-19T02:04:22;5.38;;;2.80;;
40807;SDS011;26523;52.504;13.498;2023-11-19T02:06:49;7.93;;;3.15;;
40807;SDS011;26523;52.504;13.498;2023-11-19T02:09:19;5.50;;;2.63;;
40807;SDS011;26523;52.504;13.498;2023-11-19T02:11:45;8.30;;;2.78;;
40807;SDS011;26523;52.504;13.498;2023-11-19T02:14:14;4.30;;;2.30;;
40807;SDS011;26523;52.504;13.498;2023-11-19T02:16:42;7.00;;;3.50;;
40807;SDS011;26523;52.504;13.498;2023-11-19T02:19:08;5.30;;;2.63;;
40807;SDS011;26523;52.504;13.498;2023-11-19T02:21:35;4.90;;;2.53;;
40807;SDS011;26523;52.504;13.498;2023-11-19T02:24:06;5.85;;;3.08;;
40807;SDS011;26523;52.504;13.498;2023-11-19T02:26:47;12.98;;;3.17;;
40807;SDS011;26523;52.504;13.498;2023-11-19T02:29:22;5.32;;;2.17;;
40807;SDS011;26523;52.504;13.498;2023-11-19T02:31:49;8.43;;;3.60;;
40807;SDS011;26523;52.504;13.498;2023-11-19T02:34:15;7.05;;;2.85;;
40807;SDS011;26523;52.504;13.498;2023-11-19T02:36:41;7.80;;;3.08;;
40807;SDS011;26523;52.504;13.498;2023-11-19T02:39:07;5.97;;;2.90;;
40807;SDS011;26523;52.504;13.498;2023-11-19T02:41:36;6.65;;;2.95;;
40807;SDS011;26523;52.504;13.498;2023-11-19T02:44:04;5.18;;;2.97;;
40807;SDS011;26523;52.504;13.498;2023-11-19T02:46:31;7.20;;;2.63;;
40807;SDS011;26523;52.504;13.498;2023-11-19T02:48:58;6.20;;;2.33;;
40807;SDS011;26523;52.504;13.498;2023-11-19T02:51:24;5.90;;;2.55;;
40807;SDS011;26523;52.504;13.498;2023-11-19T02:53:49;7.80;;;3.45;;
40807;SDS011;26523;52.504;13.498;2023-11-19T02:56:16;6.03;;;3.10;;
40807;SDS011;26523;52.504;13.498;2023-11-19T02:58:52;5.53;;;2.88;;
40807;SDS011;26523;52.504;13.498;2023-11-19T03:01:23;5.70;;;2.05;;
40807;SDS011;26523;52.504;13.498;2023-11-19T03:03:54;4.90;;;2.03;;
40807;SDS011;26523;52.504;13.498;2023-11-19T03:06:24;8.77;;;4.43;;
40807;SDS011;26523;52.504;13.498;2023-11-19T03:08:51;6.07;;;2.80;;
40807;SDS011;26523;52.504;13.498;2023-11-19T03:11:18;5.28;;;1.98;;
40807;SDS011;26523;52.504;13.498;2023-11-19T03:13:45;7.45;;;2.25;;
40807;SDS011;26523;52.504;13.498;2023-11-19T03:16:11;4.43;;;2.30;;
40807;SDS011;26523;52.504;13.498;2023-11-19T03:18:37;4.05;;;2.03;;
40807;SDS011;26523;52.504;13.498;2023-11-19T03:21:07;5.95;;;2.38;;
40807;SDS011;26523;52.504;13.498;2023-11-19T03:23:33;5.03;;;2.25;;
40807;SDS011;26523;52.504;13.498;2023-11-19T03:26:00;6.75;;;2.47;;
40807;SDS011;26523;52.504;13.498;2023-11-19T03:28:28;7.78;;;2.03;;
40807;SDS011;26523;52.504;13.498;2023-11-19T03:30:54;4.38;;;2.00;;
40807;SDS011;26523;52.504;13.498;2023-11-19T03:33:20;4.53;;;2.30;;
40807;SDS011;26523;52.504;13.498;2023-11-19T03:35:46;6.65;;;2.72;;
40807;SDS011;26523;52.504;13.498;2023-11-19T03:38:11;4.70;;;2.03;;
40807;SDS011;26523;52.504;13.498;2023-11-19T03:40:39;5.20;;;2.10;;
40807;SDS011;26523;52.504;13.498;2023-11-19T03:43:06;4.95;;;2.15;;
40807;SDS011;26523;52.504;13.498;2023-11-19T03:45:32;4.00;;;2.08;;
40807;SDS011;26523;52.504;13.498;2023-11-19T03:47:57;5.30;;;2.33;;
40807;SDS011;26523;52.504;13.498;2023-11-19T03:50:23;5.10;;;2.47;;
40807;SDS011;26523;52.504;13.498;2023-11-19T03:52:49;6.93;;;3.10;;
40807;SDS011;26523;52.504;13.498;2023-11-19T03:55:15;5.32;;;2.58;;
40807;SDS011;26523;52.504;13.498;2023-11-19T03:57:42;6.45;;;2.88;;
40807;SDS011;26523;52.504;13.498;2023-11-19T04:00:07;7.85;;;3.17;;
40807;SDS011;26523;52.504;13.498;2023-11-19T04:02:38;6.72;;;3.03;;
40807;SDS011;26523;52.504;13.498;2023-11-19T04:05:04;7.70;;;3.65;;
40807;SDS011;26523;52.504;13.498;2023-11-19T04:07:30;10.27;;;3.20;;
40807;SDS011;26523;52.504;13.498;2023-11-19T04:09:56;6.97;;;3.15;;
40807;SDS011;26523;52.504;13.498;2023-11-19T04:12:24;7.15;;;3.10;;
40807;SDS011;26523;52.504;13.498;2023-11-19T04:14:49;6.95;;;3.65;;
40807;SDS011;26523;52.504;13.498;2023-11-19T04:17:15;9.57;;;2.97;;
40807;SDS011;26523;52.504;13.498;2023-11-19T04:19:42;10.93;;;4.55;;
40807;SDS011;26523;52.504;13.498;2023-11-19T04:22:08;9.80;;;4.57;;
40807;SDS011;26523;52.504;13.498;2023-11-19T04:24:36;7.93;;;3.95;;
40807;SDS011;26523;52.504;13.498;2023-11-19T04:27:01;8.70;;;3.70;;
40807;SDS011;26523;52.504;13.498;2023-11-19T04:29:29;8.57;;;4.75;;
40807;SDS011;26523;52.504;13.498;2023-11-19T04:31:56;6.80;;;3.60;;
40807;SDS011;26523;52.504;13.498;2023-11-19T04:34:21;8.68;;;4.03;;
40807;SDS011;26523;52.504;13.498;2023-11-19T04:36:49;13.68;;;4.38;;
40807;SDS011;26523;52.504;13.498;2023-11-19T04:39:14;8.95;;;3.60;;
40807;SDS011;26523;52.504;13.498;2023-11-19T04:41:50;11.85;;;4.68;;
40807;SDS011;26523;52.504;13.498;2023-11-19T04:44:19;9.88;;;4.32;;
40807;SDS011;26523;52.504;13.498;2023-11-19T04:46:45;8.07;;;3.80;;
40807;SDS011;26523;52.504;13.498;2023-11-19T04:49:11;9.55;;;4.43;;
40807;SDS011;26523;52.504;13.498;2023-11-19T04:51:38;8.45;;;4.05;;
40807;SDS011;26523;52.504;13.498;2023-11-19T04:54:11;9.40;;;4.25;;
40807;SDS011;26523;52.504;13.498;2023-11-19T04:56:37;9.05;;;3.95;;
40807;SDS011;26523;52.504;13.498;2023-11-19T04:59:03;9.43;;;4.63;;
40807;SDS011;26523;52.504;13.498;2023-11-19T05:01:31;10.88;;;4.88;;
40807;SDS011;26523;52.504;13.498;2023-11-19T05:03:58;10.93;;;4.78;;
40807;SDS011;26523;52.504;13.498;2023-11-19T05:06:30;12.13;;;3.97;;
40807;SDS011;26523;52.504;13.498;2023-11-19T05:08:56;9.55;;;4.18;;
40807;SDS011;26523;52.504;13.498;2023-11-19T05:11:23;11.10;;;5.30;;
40807;SDS011;26523;52.504;13.498;2023-11-19T05:13:49;9.13;;;3.72;;
40807;SDS011;26523;52.504;13.498;2023-11-19T05:16:15;9.45;;;4.53;;
40807;SDS011;26523;52.504;13.498;2023-11-19T05:18:42;21.65;;;5.60;;
40807;SDS011;26523;52.504;13.498;2023-11-19T05:21:08;10.45;;;4.53;;
40807;SDS011;26523;52.504;13.498;2023-11-19T05:23:34;9.50;;;4.13;;
40807;SDS011;26523;52.504;13.498;2023-11-19T05:26:02;10.93;;;4.55;;
40807;SDS011;26523;52.504;13.498;2023-11-19T05:28:29;9.88;;;4.68;;
40807;SDS011;26523;52.504;13.498;2023-11-19T05:30:55;11.23;;;5.20;;
40807;SDS011;26523;52.504;13.498;2023-11-19T05:33:22;11.00;;;4.45;;
40807;SDS011;26523;52.504;13.498;2023-11-19T05:35:48;11.93;;;4.95;;
40807;SDS011;26523;52.504;13.498;2023-11-19T05:38:15;12.68;;;4.57;;
40807;SDS011;26523;52.504;13.498;2023-11-19T05:40:41;8.48;;;3.72;;
40807;SDS011;26523;52.504;13.498;2023-11-19T05:43:07;13.50;;;4.47;;
40807;SDS011;26523;52.504;13.498;2023-11-19T05:45:33;11.35;;;4.90;;
40807;SDS011;26523;52.504;13.498;2023-11-19T05:47:58;8.32;;;3.92;;
40807;SDS011;26523;52.504;13.498;2023-11-19T05:50:24;9.40;;;4.80;;
40807;SDS011;26523;52.504;13.498;2023-11-19T05:52:50;11.30;;;4.32;;
40807;SDS011;26523;52.504;13.498;2023-11-19T05:55:18;8.05;;;3.95;;
40807;SDS011;26523;52.504;13.498;2023-11-19T05:57:44;10.77;;;4.82;;
40807;SDS011;26523;52.504;13.498;2023-11-19T06:00:10;11.30;;;4.78;;
40807;SDS011;26523;52.504;13.498;2023-11-19T06:02:38;12.55;;;4.35;;
40807;SDS011;26523;52.504;13.498;2023-11-19T06:05:04;8.18;;;3.90;;
40807;SDS011;26523;52.504;13.498;2023-11-19T06:07:34;8.82;;;3.88;;
40807;SDS011;26523;52.504;13.498;2023-11-19T06:10:01;10.82;;;4.15;;
40807;SDS011;26523;52.504;13.498;2023-11-19T06:12:30;7.10;;;3.85;;
40807;SDS011;26523;52.504;13.498;2023-11-19T06:14:56;8.73;;;4.10;;
40807;SDS011;26523;52.504;13.498;2023-11-19T06:17:22;6.95;;;3.45;;
40807;SDS011;26523;52.504;13.498;2023-11-19T06:19:48;7.50;;;3.88;;
40807;SDS011;26523;52.504;13.498;2023-11-19T06:22:13;9.55;;;3.75;;
40807;SDS011;26523;52.504;13.498;2023-11-19T06:24:39;9.48;;;4.28;;
40807;SDS011;26523;52.504;13.498;2023-11-19T06:27:06;7.57;;;3.88;;
40807;SDS011;26523;52.504;13.498;2023-11-19T06:29:31;6.82;;;3.58;;
40807;SDS011;26523;52.504;13.498;2023-11-19T06:31:57;8.73;;;4.32;;
40807;SDS011;26523;52.504;13.498;2023-11-19T06:34:22;11.60;;;3.95;;
40807;SDS011;26523;52.504;13.498;2023-11-19T06:36:51;10.27;;;4.38;;
40807;SDS011;26523;52.504;13.498;2023-11-19T06:39:19;8.43;;;4.13;;
40807;SDS011;26523;52.504;13.498;2023-11-19T06:41:45;8.85;;;3.97;;
40807;SDS011;26523;52.504;13.498;2023-11-19T06:44:12;8.88;;;3.83;;
40807;SDS011;26523;52.504;13.498;2023-11-19T06:46:39;10.55;;;4.05;;
40807;SDS011;26523;52.504;13.498;2023-11-19T06:49:08;11.73;;;4.78;;
40807;SDS011;26523;52.504;13.498;2023-11-19T06:51:34;11.75;;;4.15;;
40807;SDS011;26523;52.504;13.498;2023-11-19T06:54:00;8.05;;;3.50;;
40807;SDS011;26523;52.504;13.498;2023-11-19T06:56:27;25.05;;;6.30;;
40807;SDS011;26523;52.504;13.498;2023-11-19T06:58:53;7.70;;;4.05;;
40807;SDS011;26523;52.504;13.498;2023-11-19T07:01:20;10.50;;;3.85;;
40807;SDS011;26523;52.504;13.498;2023-11-19T07:03:46;9.32;;;3.92;;
40807;SDS011;26523;52.504;13.498;2023-11-19T07:06:11;11.20;;;4.50;;
40807;SDS011;26523;52.504;13.498;2023-11-19T07:08:43;8.98;;;3.33;;
40807;SDS011;26523;52.504;13.498;2023-11-19T07:11:12;7.78;;;3.60;;
40807;SDS011;26523;52.504;13.498;2023-11-19T07:13:42;12.07;;;3.55;;
40807;SDS011;26523;52.504;13.498;2023-11-19T07:16:08;9.30;;;4.38;;
40807;SDS011;26523;52.504;13.498;2023-11-19T07:18:35;7.00;;;3.42;;
40807;SDS011;26523;52.504;13.498;2023-11-19T07:21:01;8.07;;;4.10;;
40807;SDS011;26523;52.504;13.498;2023-11-19T07:23:31;9.57;;;4.03;;
40807;SDS011;26523;52.504;13.498;2023-11-19T07:26:00;7.35;;;3.63;;
40807;SDS011;26523;52.504;13.498;2023-11-19T07:28:26;7.82;;;3.53;;
40807;SDS011;26523;52.504;13.498;2023-11-19T07:30:53;6.43;;;2.92;;
40807;SDS011;26523;52.504;13.498;2023-11-19T07:33:21;7.25;;;3.45;;
40807;SDS011;26523;52.504;13.498;2023-11-19T07:35:47;7.80;;;4.03;;
40807;SDS011;26523;52.504;13.498;2023-11-19T07:38:15;7.60;;;3.70;;
40807;SDS011;26523;52.504;13.498;2023-11-19T07:40:41;10.50;;;3.53;;
40807;SDS011;26523;52.504;13.498;2023-11-19T07:43:06;7.38;;;3.17;;
40807;SDS011;26523;52.504;13.498;2023-11-19T07:45:32;7.43;;;3.53;;
40807;SDS011;26523;52.504;13.498;2023-11-19T07:47:59;16.85;;;6.30;;
40807;SDS011;26523;52.504;13.498;2023-11-19T07:50:26;17.75;;;7.82;;
40807;SDS011;26523;52.504;13.498;2023-11-19T07:52:52;10.43;;;4.07;;
40807;SDS011;26523;52.504;13.498;2023-11-19T07:55:19;7.97;;;3.95;;
40807;SDS011;26523;52.504;13.498;2023-11-19T07:57:45;8.57;;;4.07;;
40807;SDS011;26523;52.504;13.498;2023-11-19T08:00:10;10.95;;;4.10;;
40807;SDS011;26523;52.504;13.498;2023-11-19T08:02:37;7.80;;;3.58;;
40807;SDS011;26523;52.504;13.498;2023-11-19T08:05:04;8.50;;;3.65;;
40807;SDS011;26523;52.504;13.498;2023-11-19T08:07:29;11.75;;;4.35;;
40807;SDS011;26523;52.504;13.498;2023-11-19T08:09:55;7.28;;;3.85;;
40807;SDS011;26523;52.504;13.498;2023-11-19T08:12:20;7.97;;;4.05;;
40807;SDS011;26523;52.504;13.498;2023-11-19T08:14:48;8.98;;;4.22;;
40807;SDS011;26523;52.504;13.498;2023-11-19T08:17:14;8.52;;;3.83;;
40807;SDS011;26523;52.504;13.498;2023-11-19T08:19:41;7.82;;;4.50;;
40807;SDS011;26523;52.504;13.498;2023-11-19T08:22:07;7.15;;;3.75;;
40807;SDS011;26523;52.504;13.498;2023-11-19T08:24:34;13.55;;;3.75;;
40807;SDS011;26523;52.504;13.498;2023-11-19T08:27:00;8.85;;;3.88;;
40807;SDS011;26523;52.504;13.498;2023-11-19T08:29:26;11.43;;;4.43;;
40807;SDS011;26523;52.504;13.498;2023-11-19T08:31:52;9.02;;;3.90;;
40807;SDS011;26523;52.504;13.498;2023-11-19T08:34:18;13.65;;;4.18;;
40807;SDS011;26523;52.504;13.498;2023-11-19T08:36:45;9.05;;;3.80;;
40807;SDS011;26523;52.504;13.498;2023-11-19T08:39:11;8.68;;;3.90;;
40807;SDS011;26523;52.504;13.498;2023-11-19T08:41:40;10.70;;;4.68;;
40807;SDS011;26523;52.504;13.498;2023-11-19T08:44:06;8.30;;;3.70;;
40807;SDS011;26523;52.504;13.498;2023-11-19T08:46:32;7.32;;;4.03;;
40807;SDS011;26523;52.504;13.498;2023-11-19T08:48:58;9.30;;;4.07;;
40807;SDS011;26523;52.504;13.498;2023-11-19T08:51:25;10.10;;;3.92;;
40807;SDS011;26523;52.504;13.498;2023-11-19T08:53:51;8.13;;;3.70;;
40807;SDS011;26523;52.504;13.498;2023-11-19T08:56:17;10.18;;;3.42;;
40807;SDS011;26523;52.504;13.498;2023-11-19T08:58:42;8.82;;;3.78;;
40807;SDS011;26523;52.504;13.498;2023-11-19T09:01:09;9.57;;;4.40;;
40807;SDS011;26523;52.504;13.498;2023-11-19T09:03:35;8.95;;;4.15;;
40807;SDS011;26523;52.504;13.498;2023-11-19T09:06:01;8.60;;;3.90;;
40807;SDS011;26523;52.504;13.498;2023-11-19T09:08:29;13.23;;;4.40;;
40807;SDS011;26523;52.504;13.498;2023-11-19T09:10:54;9.02;;;4.10;;
40807;SDS011;26523;52.504;13.498;2023-11-19T09:13:20;8.45;;;4.35;;
40807;SDS011;26523;52.504;13.498;2023-11-19T09:15:46;11.23;;;4.35;;
40807;SDS011;26523;52.504;13.498;2023-11-19T09:18:11;7.00;;;3.67;;
40807;SDS011;26523;52.504;13.498;2023-11-19T09:20:37;7.95;;;3.13;;
40807;SDS011;26523;52.504;13.498;2023-11-19T09:23:04;7.35;;;3.25;;
40807;SDS011;26523;52.504;13.498;2023-11-19T09:25:30;8.27;;;3.53;;
40807;SDS011;26523;52.504;13.498;2023-11-19T09:27:56;6.60;;;3.65;;
40807;SDS011;26523;52.504;13.498;2023-11-19T09:30:22;11.07;;;3.70;;
40807;SDS011;26523;52.504;13.498;2023-11-19T09:32:48;9.07;;;3.95;;
40807;SDS011;26523;52.504;13.498;2023-11-19T09:35:14;8.00;;;4.28;;
40807;SDS011;26523;52.504;13.498;2023-11-19T09:37:41;8.55;;;3.75;;
40807;SDS011;26523;52.504;13.498;2023-11-19T09:40:08;7.00;;;3.38;;
40807;SDS011;26523;52.504;13.498;2023-11-19T09:42:43;8.68;;;4.10;;
40807;SDS011;26523;52.504;13.498;2023-11-19T09:45:13;8.35;;;4.05;;
40807;SDS011;26523;52.504;13.498;2023-11-19T09:47:44;6.40;;;3.25;;
40807;SDS011;26523;52.504;13.498;2023-11-19T09:50:15;7.05;;;3.67;;
40807;SDS011;26523;52.504;13.498;2023-11-19T09:55:11;6.25;;;3.10;;
40807;SDS011;26523;52.504;13.498;2023-11-19T09:57:40;5.72;;;2.92;;
40807;SDS011;26523;52.504;13.498;2023-11-19T10:00:09;7.18;;;3.50;;
40807;SDS011;26523;52.504;13.498;2023-11-19T10:02:37;6.20;;;3.28;;
40807;SDS011;26523;52.504;13.498;2023-11-19T10:05:07;5.57;;;2.80;;
40807;SDS011;26523;52.504;13.498;2023-11-19T10:07:40;5.82;;;2.85;;
40807;SDS011;26523;52.504;13.498;2023-11-19T10:10:06;6.78;;;2.78;;
40807;SDS011;26523;52.504;13.498;2023-11-19T10:12:32;4.50;;;2.55;;
40807;SDS011;26523;52.504;13.498;2023-11-19T10:14:58;4.55;;;2.50;;
40807;SDS011;26523;52.504;13.498;2023-11-19T10:17:42;13.68;;;4.78;;
40807;SDS011;26523;52.504;13.498;2023-11-19T10:20:08;5.85;;;3.08;;
40807;SDS011;26523;52.504;13.498;2023-11-19T10:22:36;5.50;;;2.33;;
40807;SDS011;26523;52.504;13.498;2023-11-19T10:25:03;5.40;;;2.17;;
40807;SDS011;26523;52.504;13.498;2023-11-19T10:27:29;4.07;;;2.00;;
40807;SDS011;26523;52.504;13.498;2023-11-19T10:29:57;4.30;;;1.85;;
40807;SDS011;26523;52.504;13.498;2023-11-19T10:32:26;4.97;;;2.38;;
40807;SDS011;26523;52.504;13.498;2023-11-19T10:34:51;7.05;;;1.98;;
40807;SDS011;26523;52.504;13.498;2023-11-19T10:37:29;5.25;;;1.95;;
40807;SDS011;26523;52.504;13.498;2023-11-19T10:39:58;4.60;;;2.13;;
40807;SDS011;26523;52.504;13.498;2023-11-19T10:42:26;5.25;;;1.67;;
40807;SDS011;26523;52.504;13.498;2023-11-19T10:44:55;6.78;;;2.47;;
40807;SDS011;26523;52.504;13.498;2023-11-19T10:47:22;6.03;;;1.83;;
40807;SDS011;26523;52.504;13.498;2023-11-19T10:49:49;5.75;;;2.53;;
40807;SDS011;26523;52.504;13.498;2023-11-19T10:52:17;4.60;;;2.45;;
40807;SDS011;26523;52.504;13.498;2023-11-19T10:54:48;6.22;;;2.58;;
40807;SDS011;26523;52.504;13.498;2023-11-19T10:57:22;7.85;;;2.97;;
40807;SDS011;26523;52.504;13.498;2023-11-19T10:59:55;8.90;;;1.98;;
40807;SDS011;26523;52.504;13.498;2023-11-19T11:02:27;6.32;;;1.83;;
40807;SDS011;26523;52.504;13.498;2023-11-19T11:04:54;7.45;;;2.03;;
40807;SDS011;26523;52.504;13.498;2023-11-19T11:07:21;7.18;;;2.67;;
40807;SDS011;26523;52.504;13.498;2023-11-19T11:09:51;10.07;;;3.13;;
40807;SDS011;26523;52.504;13.498;2023-11-19T11:12:17;9.95;;;2.22;;
40807;SDS011;26523;52.504;13.498;2023-11-19T11:14:47;5.13;;;1.60;;
40807;SDS011;26523;52.504;13.498;2023-11-19T11:17:13;6.97;;;2.25;;
40807;SDS011;26523;52.504;13.498;2023-11-19T11:19:42;6.00;;;1.83;;
40807;SDS011;26523;52.504;13.498;2023-11-19T11:22:08;9.95;;;2.50;;
40807;SDS011;26523;52.504;13.498;2023-11-19T11:28:46;9.32;;;2.10;;
40807;SDS011;26523;52.504;13.498;2023-11-19T11:36:44;9.88;;;2.00;;
40807;SDS011;26523;52.504;13.498;2023-11-19T11:39:14;9.93;;;2.25;;
40807;SDS011;26523;52.504;13.498;2023-11-19T11:41:41;8.63;;;2.22;;
40807;SDS011;26523;52.504;13.498;2023-11-19T11:44:06;8.15;;;2.58;;
40807;SDS011;26523;52.504;13.498;2023-11-19T11:49:02;8.50;;;2.53;;
40807;SDS011;26523;52.504;13.498;2023-11-19T11:52:11;9.18;;;2.67;;
40807;SDS011;26523;52.504;13.498;2023-11-19T12:02:08;9.52;;;2.40;;
40807;SDS011;26523;52.504;13.498;2023-11-19T12:04:35;9.15;;;2.55;;
40807;SDS011;26523;52.504;13.498;2023-11-19T12:09:42;14.45;;;2.85;;
40807;SDS011;26523;52.504;13.498;2023-11-19T12:20:00;11.88;;;2.65;;
40807;SDS011;26523;52.504;13.498;2023-11-19T12:22:26;16.30;;;2.58;;
40807;SDS011;26523;52.504;13.498;2023-11-19T12:24:53;9.75;;;3.33;;
40807;SDS011;26523;52.504;13.498;2023-11-19T12:27:19;15.77;;;2.78;;
40807;SDS011;26523;52.504;13.498;2023-11-19T12:29:48;10.20;;;2.80;;
40807;SDS011;26523;52.504;13.498;2023-11-19T12:32:14;10.20;;;3.40;;
40807;SDS011;26523;52.504;13.498;2023-11-19T12:34:40;22.55;;;2.80;;
40807;SDS011;26523;52.504;13.498;2023-11-19T12:37:10;12.90;;;2.75;;
40807;SDS011;26523;52.504;13.498;2023-11-19T12:39:42;12.48;;;2.70;;
40807;SDS011;26523;52.504;13.498;2023-11-19T12:42:14;16.45;;;3.63;;
40807;SDS011;26523;52.504;13.498;2023-11-19T12:44:48;11.68;;;2.78;;
40807;SDS011;26523;52.504;13.498;2023-11-19T12:47:21;16.67;;;3.35;;
40807;SDS011;26523;52.504;13.498;2023-11-19T12:49:57;17.15;;;3.35;;
40807;SDS011;26523;52.504;13.498;2023-11-19T12:52:23;12.23;;;3.53;;
40807;SDS011;26523;52.504;13.498;2023-11-19T12:54:48;15.52;;;2.95;;
40807;SDS011;26523;52.504;13.498;2023-11-19T12:57:15;12.90;;;2.47;;
40807;SDS011;26523;52.504;13.498;2023-11-19T12:59:41;16.83;;;2.53;;
40807;SDS011;26523;52.504;13.498;2023-11-19T13:02:44;11.30;;;3.22;;
40807;SDS011;26523;52.504;13.498;2023-11-19T13:05:32;12.70;;;3.00;;
40807;SDS011;26523;52.504;13.498;2023-11-19T13:10:31;21.08;;;3.55;;
40807;SDS011;26523;52.504;13.498;2023-11-19T13:12:59;15.07;;;4.15;;
40807;SDS011;26523;52.504;13.498;2023-11-19T13:15:34;11.18;;;2.42;;
40807;SDS011;26523;52.504;13.498;2023-11-19T13:18:01;10.98;;;3.17;;
40807;SDS011;26523;52.504;13.498;2023-11-19T13:20:27;12.30;;;3.92;;
40807;SDS011;26523;52.504;13.498;2023-11-19T13:23:03;17.90;;;3.15;;
40807;SDS011;26523;52.504;13.498;2023-11-19T13:25:30;12.05;;;4.88;;
40807;SDS011;26523;52.504;13.498;2023-11-19T13:27:58;18.13;;;3.55;;
40807;SDS011;26523;52.504;13.498;2023-11-19T13:30:25;11.25;;;2.65;;
40807;SDS011;26523;52.504;13.498;2023-11-19T13:32:51;10.18;;;3.05;;
40807;SDS011;26523;52.504;13.498;2023-11-19T13:35:18;14.02;;;2.47;;
40807;SDS011;26523;52.504;13.498;2023-11-19T13:37:44;13.45;;;2.65;;
40807;SDS011;26523;52.504;13.498;2023-11-19T13:40:12;13.85;;;2.25;;
40807;SDS011;26523;52.504;13.498;2023-11-19T13:42:42;9.38;;;3.42;;
40807;SDS011;26523;52.504;13.498;2023-11-19T13:45:09;10.43;;;2.97;;
40807;SDS011;26523;52.504;13.498;2023-11-19T13:47:44;20.95;;;3.13;;
40807;SDS011;26523;52.504;13.498;2023-11-19T13:50:13;18.88;;;3.85;;
40807;SDS011;26523;52.504;13.498;2023-11-19T13:52:40;9.93;;;2.72;;
40807;SDS011;26523;52.504;13.498;2023-11-19T13:55:08;9.38;;;3.28;;
40807;SDS011;26523;52.504;13.498;2023-11-19T13:57:35;19.05;;;3.35;;
40807;SDS011;26523;52.504;13.498;2023-11-19T14:00:05;21.17;;;3.85;;
40807;SDS011;26523;52.504;13.498;2023-11-19T14:02:36;19.52;;;4.80;;
40807;SDS011;26523;52.504;13.498;2023-11-19T14:05:02;15.23;;;3.20;;
40807;SDS011;26523;52.504;13.498;2023-11-19T14:07:30;12.40;;;3.00;;
40807;SDS011;26523;52.504;13.498;2023-11-19T14:09:56;13.07;;;2.97;;
40807;SDS011;26523;52.504;13.498;2023-11-19T14:12:22;19.15;;;3.22;;
40807;SDS011;26523;52.504;13.498;2023-11-19T14:14:47;9.90;;;3.30;;
40807;SDS011;26523;52.504;13.498;2023-11-19T14:17:13;15.20;;;3.10;;
40807;SDS011;26523;52.504;13.498;2023-11-19T14:19:40;25.50;;;3.47;;
40807;SDS011;26523;52.504;13.498;2023-11-19T14:22:24;13.77;;;4.00;;
40807;SDS011;26523;52.504;13.498;2023-11-19T14:24:50;16.98;;;3.05;;
40807;SDS011;26523;52.504;13.498;2023-11-19T14:27:17;17.33;;;3.72;;
40807;SDS011;26523;52.504;13.498;2023-11-19T14:29:43;19.85;;;4.80;;
40807;SDS011;26523;52.504;13.498;2023-11-19T14:32:10;12.13;;;2.85;;
40807;SDS011;26523;52.504;13.498;2023-11-19T14:34:36;13.27;;;3.72;;
40807;SDS011;26523;52.504;13.498;2023-11-19T14:37:02;18.55;;;4.57;;
40807;SDS011;26523;52.504;13.498;2023-11-19T14:39:27;14.48;;;3.28;;
40807;SDS011;26523;52.504;13.498;2023-11-19T14:41:56;16.25;;;2.70;;
40807;SDS011;26523;52.504;13.498;2023-11-19T14:44:29;15.65;;;2.75;;
40807;SDS011;26523;52.504;13.498;2023-11-19T14:46:55;11.57;;;3.22;;
40807;SDS011;26523;52.504;13.498;2023-11-19T14:49:20;10.07;;;3.40;;
40807;SDS011;26523;52.504;13.498;2023-11-19T14:51:46;15.52;;;3.83;;
40807;SDS011;26523;52.504;13.498;2023-11-19T14:54:12;19.42;;;3.00;;
40807;SDS011;26523;52.504;13.498;2023-11-19T14:56:42;20.25;;;3.60;;
40807;SDS011;26523;52.504;13.498;2023-11-19T14:59:07;26.15;;;4.05;;
40807;SDS011;26523;52.504;13.498;2023-11-19T15:01:35;16.20;;;4.32;;
40807;SDS011;26523;52.504;13.498;2023-11-19T15:04:01;12.48;;;2.95;;
40807;SDS011;26523;52.504;13.498;2023-11-19T15:06:28;22.42;;;3.22;;
40807;SDS011;26523;52.504;13.498;2023-11-19T15:08:56;15.25;;;3.03;;